• Join FlightAware (Why Join?)
  • Login
  • US Flag 
10:33PM EDT


 

Airport Tracker/Info


-or-


 

Live Flight TrackerFlight Track Log ✈ FFT720 ✈ 30-Jun-2013 ✈ KDEN - KDCA

Flight Track Log - Related Links

Times and Time Zones

All times are in EDT time to prevent confusion due to time zone crossing. See the FFT720 flight status page for this flight to view local times or setup timezone preferences in your user account.

Time Position Orientation Groundspeed Altitude Reporting Facility
EDT Latitude Longitude Course Direction KTS MPH feet Rate Location/Type
07:14PM 39.8520 -104.6800 270° West 33 38  Level FlightAware
07:16PM 39.8580 -104.6840 333° Northwest 23 26 660 Level FlightAware
07:16PM 39.8610 -104.6840 360° North 24 28 840 Level FlightAware
07:17PM 39.8640 -104.6840 360° North 25 29 900 Level FlightAware
07:17PM 39.8680 -104.6840 360° North 26 30 1,020 Level FlightAware
07:18PM 39.8710 -104.6820 27° Northeast 18 21 1,080 Level FlightAware
07:18PM 39.8710 -104.6810 90° East 19 22 1,260 Level FlightAware
07:21PM 39.9018 -104.3031 90° East  Level Estimated
07:21PM 39.8780 -104.6590 103° East 52 60  Level FlightAware
07:22PM 39.8746 -104.1454 103° East  Level FlightAware Approximate
07:22PM 39.8780 -104.6510 90° East 52 60  Level FlightAware
07:22PM 39.8770 -104.6080 92° East 190 219 5,800 6,660 Climbing FlightAware
07:23PM 39.8770 -104.5710 90° East 205 236 6,700 1,080 Climbing FlightAware
07:23PM 39.8760 -104.5320 92° East 241 277 6,900 600 Climbing FlightAware
07:24PM 39.8760 -104.5140 90° East 254 292 7,100 1,320 Climbing FlightAware
07:24PM 39.8750 -104.4700 92° East 272 313 7,800 1,560 Climbing FlightAware
07:25PM 39.8750 -104.4230 90° East 286 329 8,600 1,800 Climbing FlightAware
07:25PM 39.8750 -104.3740 90° East 294 338 9,500 1,560 Climbing FlightAware
07:26PM 39.8770 -104.2920 88° East 327 376 10,500 1,200 Climbing FlightAware
07:26PM 39.8780 -104.2110 89° East 356 410 11,200 1,800 Climbing FlightAware
07:27PM 39.8790 -104.1230 89° East 353 406 12,900 2,040 Climbing FlightAware
07:28PM 39.8800 -104.0290 89° East 372 428 14,100 1,740 Climbing FlightAware
07:28PM 39.8810 -103.9380 89° East 374 430 15,400 1,680 Climbing FlightAware
07:29PM 39.8830 -103.8380 88° East 385 443 16,500 1,380 Climbing FlightAware
07:30PM 39.8840 -103.7440 89° East 395 455 17,400 1,380 Climbing FlightAware
07:31PM 39.8950 -103.6400 82° East 402 463 18,500 1,140 Climbing FlightAware
07:31PM 39.9060 -103.5430 82° East 418 481 19,000 1,200 Climbing FlightAware
07:32PM 39.9170 -103.4410 82° East 419 482 20,100 1,380 Climbing FlightAware
07:33PM 39.9300 -103.3260 82° East 427 491 21,000 1,020 Climbing FlightAware
07:33PM 39.9430 -103.2130 81° East 438 504 21,700 1,140 Climbing FlightAware
07:34PM 39.9540 -103.1120 82° East 442 509 22,600 1,320 Climbing FlightAware
07:35PM 39.9670 -102.9930 82° East 443 510 23,600 900 Climbing FlightAware
07:35PM 39.9790 -102.8840 82° East 456 525 23,900 660 Climbing FlightAware
07:36PM 39.9900 -102.7640 83° East 466 536 24,600 900 Climbing FlightAware
07:37PM 39.9970 -102.6500 85° East 472 543 25,200 900 Climbing FlightAware
07:38PM 40.0040 -102.5300 86° East 472 543 25,900 900 Climbing FlightAware
07:38PM 40.0100 -102.4130 86° East 477 549 26,500 840 Climbing FlightAware
07:39PM 40.0200 -102.2510 85° East 483 556 27,300 840 Climbing FlightAware
07:40PM 40.0290 -102.0860 86° East 488 562 28,100 540 Climbing FlightAware
07:41PM 40.0350 -101.9800 86° East 490 564 28,200 60 Climbing FlightAware
07:41PM 40.0410 -101.8870 85° East 490 564 28,200  Level FlightAware
07:42PM 40.0500 -101.7670 84° East 490 564 28,200  Level FlightAware
07:43PM 40.0560 -101.6770 85° East 490 564 28,200  Level FlightAware
07:44PM 40.0640 -101.5560 85° East 490 564 28,200  Level FlightAware
07:44PM 40.0700 -101.4660 85° East 490 564 28,200 2,700 Level FlightAware
07:45PM 40.0719 -101.2331 85° East 486 559 32,000 2,400 Climbing Denver Center
07:46PM 40.0794 -101.0650 87° East 487 560 32,600 720 Climbing Denver Center
07:47PM 40.0889 -100.8708 86° East 484 557 33,600 720 Climbing Denver Center
07:48PM 40.0953 -100.7033 87° East 484 557 34,200 660 Climbing Denver Center
07:49PM 40.1039 -100.5100 87° East 482 555 35,000 360 Climbing Denver Center
07:50PM 40.1106 -100.3442 87° East 481 554 35,000  Level Denver Center
07:51PM 40.1158 -100.2047 87° East 483 556 35,000  Level Denver Center
07:52PM 40.1244 -99.9853 87° East 478 550 35,000  Level Denver Center
07:53PM 40.1308 -99.7914 87° East 477 549 35,000  Level Denver Center
07:54PM 40.1367 -99.6192 87° East 476 548 35,000  Level Denver Center
07:55PM 40.1422 -99.4461 88° East 478 550 35,000  Level Denver Center
08:01PM 40.1700 -98.4320 88° East 472 543 35,000  Level FlightAware
08:02PM 40.1730 -98.3210 88° East 472 543 35,000  Level FlightAware
08:03PM 40.1760 -98.2110 88° East 472 543 35,000  Level FlightAware
08:03PM 40.1780 -98.0790 89° East 469 540 35,000  Level FlightAware
08:04PM 40.1800 -97.9550 89° East 469 540 35,000  Level FlightAware
08:05PM 40.1820 -97.8570 88° East 470 541 35,000  Level FlightAware
08:05PM 40.1840 -97.7310 89° East 470 541 35,000  Level FlightAware
08:06PM 40.1880 -97.5790 88° East 470 541 35,000  Level FlightAware
08:08PM 40.1910 -97.2870 89° East 472 543 35,000  Level FlightAware
08:09PM 40.1920 -97.1840 89° East 472 543 35,000  Level FlightAware
08:09PM 40.1970 -97.0510 87° East 468 539 35,000  Level FlightAware
08:10PM 40.2030 -96.9370 86° East 470 541 35,000  Level FlightAware
08:11PM 40.2140 -96.7420 86° East 470 541 35,000  Level FlightAware
08:12PM 40.2230 -96.5860 86° East 471 542 35,000  Level FlightAware
08:13PM 40.2300 -96.4710 85° East 470 541 35,000  Level FlightAware
08:14PM 40.2380 -96.3170 86° East 468 539 35,000  Level FlightAware
08:15PM 40.2470 -96.1420 86° East 466 536 35,000  Level FlightAware
08:15PM 40.2530 -96.0200 86° East 467 537 35,000  Level FlightAware
08:16PM 40.2590 -95.9000 86° East 467 537 35,000  Level FlightAware
08:17PM 40.2650 -95.7780 86° East 466 536 35,000  Level FlightAware
08:18PM 40.2700 -95.6660 87° East 464 534 35,000  Level FlightAware
08:18PM 40.2760 -95.5410 86° East 462 532 35,000  Level FlightAware
08:19PM 40.2810 -95.4320 87° East 462 532 35,000  Level FlightAware
08:20PM 40.2870 -95.3090 86° East 463 533 35,000  Level FlightAware
08:20PM 40.2920 -95.1980 87° East 462 532 35,000  Level FlightAware
08:21PM 40.2970 -95.0720 87° East 459 528 35,000  Level FlightAware
08:22PM 40.3010 -94.9730 87° East 458 527 35,000  Level FlightAware
08:22PM 40.3070 -94.8380 87° East 458 527 35,000  Level FlightAware
08:23PM 40.3110 -94.7310 87° East 458 527 35,000  Level FlightAware
08:24PM 40.3160 -94.6070 87° East 458 527 35,000  Level FlightAware
08:25PM 40.3200 -94.4960 87° East 458 527 35,000  Level FlightAware
08:25PM 40.3240 -94.3780 87° East 458 527 35,000  Level FlightAware
08:26PM 40.3280 -94.2630 87° East 460 529 35,000  Level FlightAware
08:27PM 40.3320 -94.1510 87° East 460 529 35,000 60 Level FlightAware
08:27PM 40.3360 -94.0490 87° East 458 527 35,100  Climbing FlightAware
08:28PM 40.3400 -93.9340 87° East 456 525 35,000 -120 Descending FlightAware
08:29PM 40.3440 -93.8210 87° East 456 525 35,000  Level FlightAware
08:29PM 40.3470 -93.6880 88° East 456 525 35,000  Level FlightAware
08:30PM 40.3510 -93.5700 87° East 456 525 35,000  Level FlightAware
08:31PM 40.3540 -93.4580 88° East 455 524 35,000 60 Level FlightAware
08:32PM 40.3570 -93.3360 88° East 451 519 35,100  Climbing FlightAware
08:32PM 40.3600 -93.2270 88° East 449 517 35,000 -120 Descending FlightAware
08:33PM 40.3630 -93.1110 88° East 445 512 35,000  Level FlightAware
08:34PM 40.3660 -93.0000 88° East 445 512 35,000  Level FlightAware
08:34PM 40.3690 -92.8870 88° East 446 513 35,000  Level FlightAware
08:35PM 40.3710 -92.7690 89° East 447 514 35,000  Level FlightAware
08:36PM 40.3740 -92.6530 88° East 448 516 35,000  Level FlightAware
08:36PM 40.3760 -92.5410 89° East 448 516 35,000  Level FlightAware
08:37PM 40.3780 -92.4270 89° East 449 517 35,000  Level FlightAware
08:38PM 40.3810 -92.3170 88° East 450 518 35,000  Level FlightAware
08:38PM 40.3820 -92.2180 89° East 450 518 35,000  Level FlightAware
08:39PM 40.3850 -92.0860 88° East 449 517 35,000  Level FlightAware
08:40PM 40.3860 -91.9750 89° East 451 519 35,000  Level FlightAware
08:41PM 40.3880 -91.8530 89° East 452 520 35,000  Level FlightAware
08:41PM 40.3900 -91.7720 88° East 453 521 35,000  Level FlightAware
08:42PM 40.3910 -91.6320 89° East 452 520 35,000  Level FlightAware
08:43PM 40.3930 -91.5110 89° East 452 520 35,000  Level FlightAware
08:43PM 40.3940 -91.3960 89° East 452 520 35,000  Level FlightAware
08:44PM 40.3950 -91.2840 89° East 452 520 35,000  Level FlightAware
08:45PM 40.3960 -91.1940 89° East 451 519 35,000  Level FlightAware
08:46PM 40.3970 -91.0270 89° East 451 519 35,000  Level FlightAware
08:46PM 40.3980 -90.9140 89° East 452 520 35,000  Level FlightAware
08:47PM 40.3980 -90.8020 90° East 453 521 35,000  Level FlightAware
08:48PM 40.3990 -90.6810 89° East 452 520 35,000  Level FlightAware
08:48PM 40.3990 -90.5680 90° East 452 520 35,000  Level FlightAware
08:49PM 40.4000 -90.4570 89° East 450 518 35,000  Level FlightAware
08:50PM 40.4000 -90.3500 90° East 449 517 35,000  Level FlightAware
08:51PM 40.4000 -90.1680 90° East 446 513 35,000  Level FlightAware
08:52PM 40.4000 -89.9960 90° East 447 514 35,000  Level FlightAware
08:53PM 40.4000 -89.8890 90° East 447 514 35,000  Level FlightAware
08:53PM 40.3990 -89.7660 91° East 446 513 35,000  Level FlightAware
08:54PM 40.3990 -89.6590 90° East 447 514 35,000  Level FlightAware
08:55PM 40.3980 -89.5550 91° East 446 513 35,000  Level FlightAware
08:56PM 40.3980 -89.4300 90° East 446 513 35,000  Level FlightAware
08:56PM 40.3970 -89.3230 91° East 447 514 35,000  Level FlightAware
08:57PM 40.3960 -89.2140 91° East 449 517 35,000  Level FlightAware
08:58PM 40.3950 -89.0920 91° East 450 518 35,000  Level FlightAware
08:58PM 40.3940 -88.9830 91° East 450 518 35,000  Level FlightAware
08:59PM 40.3930 -88.8640 91° East 450 518 35,000  Level FlightAware
09:00PM 40.3910 -88.7420 91° East 451 519 35,000  Level FlightAware
09:00PM 40.3900 -88.6310 91° East 451 519 35,000  Level FlightAware
09:01PM 40.3880 -88.5110 91° East 451 519 35,000  Level FlightAware
09:02PM 40.3860 -88.4050 91° East 451 519 35,000  Level FlightAware
09:02PM 40.3850 -88.2880 91° East 452 520 35,000  Level FlightAware
09:03PM 40.3830 -88.1710 91° East 453 521 35,000  Level FlightAware
09:04PM 40.3810 -88.0610 91° East 454 522 35,000  Level FlightAware
09:05PM 40.3790 -87.9510 91° East 456 525 35,000  Level FlightAware
09:05PM 40.3760 -87.8330 92° East 457 526 35,000  Level FlightAware
09:06PM 40.3730 -87.6830 91° East 457 526 35,000  Level FlightAware
09:07PM 40.3700 -87.5580 92° East 456 525 35,000  Level FlightAware
09:08PM 40.3680 -87.4470 91° East 455 524 35,000  Level FlightAware
09:08PM 40.3650 -87.3240 92° East 455 524 35,000  Level FlightAware
09:09PM 40.3620 -87.2110 92° East 457 526 35,000  Level FlightAware
09:10PM 40.3590 -87.0900 92° East 460 529 35,000  Level FlightAware
09:10PM 40.3560 -86.9780 92° East 461 531 35,000  Level FlightAware
09:11PM 40.3520 -86.8560 92° East 461 531 35,000  Level FlightAware
09:12PM 40.3490 -86.7440 92° East 462 532 35,000  Level FlightAware
09:13PM 40.3450 -86.6210 92° East 461 531 35,000  Level FlightAware
09:13PM 40.3420 -86.5060 92° East 463 533 35,000  Level FlightAware
09:14PM 40.3380 -86.3810 92° East 463 533 35,000  Level FlightAware
09:15PM 40.3340 -86.2740 93° East 463 533 35,000  Level FlightAware
09:15PM 40.3300 -86.1570 93° East 467 537 35,000  Level FlightAware
09:16PM 40.3260 -86.0350 92° East 470 541 35,000  Level FlightAware
09:17PM 40.3220 -85.9200 93° East 474 545 35,000  Level FlightAware
09:17PM 40.3170 -85.7850 93° East 475 547 35,000  Level FlightAware
09:18PM 40.3120 -85.6760 93° East 477 549 35,000  Level FlightAware
09:19PM 40.3070 -85.5450 93° East 479 551 35,000  Level FlightAware
09:20PM 40.2980 -85.4290 96° East 472 543 35,000 60 Level FlightAware
09:20PM 40.2860 -85.3040 97° East 472 543 35,100 60 Climbing FlightAware
09:21PM 40.2750 -85.1930 97° East 471 542 35,100 -120 Level FlightAware
09:22PM 40.2640 -85.0810 97° East 472 543 35,000 -120 Descending FlightAware
09:22PM 40.2520 -84.9590 97° East 469 540 35,000  Level FlightAware
09:23PM 40.2400 -84.8430 98° East 467 537 35,000  Level FlightAware
09:24PM 40.2270 -84.7200 98° East 468 539 35,000  Level FlightAware
09:24PM 40.2160 -84.6080 97° East 468 539 35,000  Level FlightAware
09:25PM 40.2040 -84.4930 98° East 468 539 35,000  Level FlightAware
09:26PM 40.1910 -84.3730 98° East 468 539 35,000  Level FlightAware
09:27PM 40.1780 -84.2480 98° East 468 539 35,000  Level FlightAware
09:27PM 40.1660 -84.1380 98° East 468 539 35,000  Level FlightAware
09:28PM 40.1520 -84.0150 98° East 468 539 35,000  Level FlightAware
09:29PM 40.1400 -83.9040 98° East 467 537 35,000  Level FlightAware
09:29PM 40.1260 -83.7800 98° East 468 539 35,000  Level FlightAware
09:30PM 40.1130 -83.6660 98° East 472 543 35,000  Level FlightAware
09:31PM 40.1000 -83.5490 98° East 473 544 35,000  Level FlightAware
09:31PM 40.0860 -83.4260 98° East 472 543 35,000  Level FlightAware
09:32PM 40.0730 -83.3130 99° East 469 540 35,000  Level FlightAware
09:33PM 40.0590 -83.1900 98° East 467 537 35,000  Level FlightAware
09:33PM 40.0460 -83.0800 99° East 467 537 35,000  Level FlightAware
09:34PM 40.0310 -82.9520 99° East 467 537 35,000  Level FlightAware
09:35PM 40.0180 -82.8460 99° East 468 539 35,000  Level FlightAware
09:36PM 40.0040 -82.7270 99° East 469 540 35,000  Level FlightAware
09:36PM 39.9890 -82.6080 99° East 469 540 35,000  Level FlightAware
09:37PM 39.9740 -82.4830 99° East 471 542 35,000  Level FlightAware
09:38PM 39.9610 -82.3780 99° East 471 542 35,000  Level FlightAware
09:38PM 39.9460 -82.2600 99° East 472 543 35,000  Level FlightAware
09:39PM 39.9300 -82.1360 100° East 474 545 35,000  Level FlightAware
09:40PM 39.9150 -82.0190 99° East 475 547 35,000  Level FlightAware
09:41PM 39.8990 -81.8940 99° East 474 545 35,000  Level FlightAware
09:41PM 39.8800 -81.7440 99° East 473 544 35,000  Level FlightAware
09:42PM 39.8610 -81.6330 103° East 464 534 35,000  Level FlightAware
09:43PM 39.8340 -81.5340 110° East 455 524 35,000  Level FlightAware
09:44PM 39.7970 -81.4130 112° Southeast 454 522 35,000  Level FlightAware
09:44PM 39.7640 -81.3070 112° Southeast 455 524 35,000  Level FlightAware
09:45PM 39.7300 -81.1940 111° Southeast 459 528 35,000 -180 Level FlightAware
09:46PM 39.6990 -81.0970 113° Southeast 457 526 34,800 -660 Descending FlightAware
09:46PM 39.6630 -80.9820 112° Southeast 455 524 34,100 -960 Descending FlightAware
09:47PM 39.6310 -80.8790 112° Southeast 458 527 33,500 -1,020 Descending FlightAware
09:48PM 39.6010 -80.7820 112° Southeast 462 532 32,800 -1,020 Descending FlightAware
09:48PM 39.5650 -80.6680 112° Southeast 464 534 32,100 -1,020 Descending FlightAware
09:49PM 39.5330 -80.5690 113° Southeast 469 540 31,400 -900 Descending FlightAware
09:50PM 39.5020 -80.4690 112° Southeast 468 539 31,000 -300 Descending FlightAware
09:51PM 39.4620 -80.3450 113° Southeast 465 535 31,000  Level FlightAware
09:51PM 39.4250 -80.2310 113° Southeast 461 531 31,000  Level FlightAware
09:52PM 39.3950 -80.1370 112° Southeast 461 531 31,000  Level FlightAware
09:53PM 39.3560 -80.0160 113° Southeast 464 534 31,000  Level FlightAware
09:53PM 39.3230 -79.9140 113° Southeast 466 536 31,000  Level FlightAware
09:54PM 39.2960 -79.7940 106° East 480 552 31,000  Level FlightAware
09:55PM 39.2830 -79.6810 98° East 486 559 31,000 -1,740 Level FlightAware
09:55PM 39.2730 -79.5590 96° East 481 554 28,700 -2,700 Descending FlightAware
09:56PM 39.2630 -79.4390 96° East 454 522 27,200 -2,040 Descending FlightAware
09:57PM 39.2470 -79.3350 101° East 433 498 25,900 -1,800 Descending FlightAware
09:58PM 39.2090 -79.2410 118° Southeast 423 487 24,800 -1,560 Descending FlightAware
09:58PM 39.1590 -79.1480 125° Southeast 420 483 23,700 -1,380 Descending FlightAware
09:59PM 39.1175 -79.0722 125° Southeast 427 491 22,700 -1,320 Descending Washington Center
10:00PM 39.0711 -78.9417 115° Southeast 417 480 21,300 -1,500 Descending Washington Center
10:01PM 39.0689 -78.7944 91° East 391 450 19,800 -1,320 Descending Washington Center
10:02PM 39.0994 -78.6542 74° East 391 450 18,800 -1,020 Descending Washington Center
10:03PM 39.1303 -78.5136 74° East 391 450 17,800 -1,020 Descending Washington Center
10:04PM 39.1583 -78.3836 74° East 386 444 16,800 -1,080 Descending Washington Center
10:09PM 39.0280 -77.8270 74° East 256 295 11,200 -1,020 Descending FlightAware
10:10PM 39.0120 -77.7630 108° East 222 255 10,600 -1,020 Descending FlightAware
10:11PM 38.9920 -77.6840 108° East 217 250 9,300 -1,200 Descending FlightAware
10:12PM 38.9667 -77.6000 108° East 217 250 8,000 -600 Descending Potomac TRACON
10:13PM 38.9500 -77.5333 108° East 220 253 8,000  Level Potomac TRACON
10:14PM 38.9167 -77.4500 117° Southeast 222 255 8,000  Level Potomac TRACON
10:15PM 38.9000 -77.3833 108° East 219 252 8,000 -180 Level Potomac TRACON
10:21PM 38.7040 -77.1750 108° East 179 206 7,100 -180 Descending FlightAware
10:21PM 38.6810 -77.1740 178° South 177 204 7,100  Level FlightAware
10:22PM 38.6590 -77.1740 180° South 177 204 7,100  Level FlightAware
10:22PM 38.6390 -77.1800 193° South 180 207 7,100  Level FlightAware
10:23PM 38.6330 -77.1970 246° West 185 213 7,100  Level FlightAware
10:23PM 38.6320 -77.2110 265° West 186 214 7,100  Level FlightAware
10:23PM 38.6300 -77.2390 265° West 187 215 7,100  Level FlightAware
10:24PM 38.6430 -77.2660 302° West 201 231 7,100  Level FlightAware
10:24PM 38.6500 -77.2690 341° North 214 246 7,100 -120 Level FlightAware
10:24PM 38.6833 -77.2833 341° North 215 247 7,000 -240 Descending Potomac TRACON
10:25PM 38.7500 -77.2833 360° North 214 246 6,700 -300 Descending Potomac TRACON